createdAt,value
2019-04-06T00:00:49.626Z,39.1
2019-04-06T00:02:49.711Z,38.2
2019-04-06T00:04:50.170Z,38.2
2019-04-06T00:06:50.429Z,36.1
2019-04-06T00:08:49.517Z,37.0
2019-04-06T00:10:49.475Z,37.0
2019-04-06T00:12:49.743Z,38.1
2019-04-06T00:14:49.886Z,38.0
2019-04-06T00:16:50.227Z,37.9
2019-04-06T00:18:50.226Z,39.3
2019-04-06T00:20:50.362Z,43.1
2019-04-06T00:22:50.446Z,40.9
2019-04-06T00:24:49.588Z,40.9
2019-04-06T00:26:49.738Z,42.9
2019-04-06T00:28:49.779Z,42.6
2019-04-06T00:30:49.821Z,40.2
2019-04-06T00:32:49.945Z,42.0
2019-04-06T00:34:50.326Z,42.0
2019-04-06T00:36:49.610Z,44.0
2019-04-06T00:38:49.716Z,44.5
2019-04-06T00:40:49.739Z,44.1
2019-04-06T00:42:49.838Z,44.1
2019-04-06T00:44:49.966Z,42.5
2019-04-06T00:46:50.273Z,40.4
2019-04-06T00:48:50.331Z,44.5
2019-04-06T00:50:50.360Z,40.8
2019-04-06T00:52:50.404Z,40.8
2019-04-06T00:54:49.459Z,43.9
2019-04-06T00:56:49.884Z,40.8
2019-04-06T00:58:49.901Z,40.6
2019-04-06T01:00:49.979Z,41.3
2019-04-06T01:02:50.085Z,41.3
2019-04-06T01:04:50.402Z,35.4
2019-04-06T01:06:49.815Z,36.0
2019-04-06T01:08:49.866Z,36.2
2019-04-06T01:10:49.974Z,35.9
2019-04-06T01:12:50.238Z,35.9
2019-04-06T01:14:49.703Z,35.2
2019-04-06T01:16:50.454Z,37.6
2019-04-06T01:18:49.873Z,36.1
2019-04-06T01:20:50.014Z,35.5
2019-04-06T01:22:50.088Z,35.5
2019-04-06T01:24:50.255Z,37.1
2019-04-06T01:26:49.635Z,37.6
2019-04-06T01:28:49.894Z,34.8
2019-04-06T01:30:50.083Z,34.8
2019-04-06T01:32:50.218Z,35.4
2019-04-06T01:34:49.669Z,40.6
2019-04-06T01:36:49.915Z,38.2
2019-04-06T01:38:50.125Z,38.2
2019-04-06T01:40:50.150Z,38.8
2019-04-06T01:42:50.247Z,36.0
2019-04-06T01:44:50.346Z,38.9
2019-04-06T01:46:49.782Z,36.2
2019-04-06T01:48:49.880Z,36.5
2019-04-06T01:50:49.959Z,36.5
2019-04-06T01:52:50.112Z,38.0
2019-04-06T01:54:50.152Z,40.6
2019-04-06T01:56:50.443Z,40.4
2019-04-06T01:58:49.465Z,40.4
2019-04-06T02:00:49.721Z,42.6
2019-04-06T02:02:49.804Z,44.6
2019-04-06T02:04:50.203Z,46.1
2019-04-06T02:06:49.550Z,44.5
2019-04-06T02:08:49.972Z,44.5
2019-04-06T02:10:50.012Z,42.5
2019-04-06T02:12:50.111Z,41.8
2019-04-06T02:14:50.178Z,46.4
2019-04-06T02:16:49.487Z,41.9
2019-04-06T02:18:49.644Z,41.9
2019-04-06T02:20:49.767Z,40.5
2019-04-06T02:22:49.860Z,46.3
2019-04-06T02:24:50.070Z,45.2
2019-04-06T02:26:50.185Z,46.4
2019-04-06T02:28:50.410Z,46.4
2019-04-06T02:30:49.526Z,47.5
2019-04-06T02:32:49.906Z,48.6
2019-04-06T02:34:50.346Z,50.5
2019-04-06T02:36:49.466Z,49.6
2019-04-06T02:38:49.959Z,49.6
2019-04-06T02:40:50.325Z,45.3
2019-04-06T02:42:50.385Z,45.6
2019-04-06T02:44:49.567Z,50.3
2019-04-06T02:46:49.819Z,46.8
2019-04-06T02:48:50.020Z,46.8
2019-04-06T02:50:50.256Z,43.4
2019-04-06T02:52:49.743Z,44.3
2019-04-06T02:54:50.048Z,43.5
2019-04-06T02:56:50.268Z,43.5
2019-04-06T02:58:50.311Z,42.4
2019-04-06T03:00:50.336Z,43.1
2019-04-06T03:02:49.509Z,43.5
2019-04-06T03:04:49.931Z,43.5
2019-04-06T03:06:50.222Z,42.8
2019-04-06T03:08:50.325Z,42.8
2019-04-06T03:10:49.429Z,43.5
2019-04-06T03:12:49.669Z,43.2
2019-04-06T03:14:49.762Z,43.2
2019-04-06T03:16:49.956Z,48.4
2019-04-06T03:18:50.037Z,48.4
2019-04-06T03:20:50.104Z,43.7
2019-04-06T03:22:49.677Z,44.5
2019-04-06T03:24:49.769Z,44.5
2019-04-06T03:27:00.414Z,47.3
2019-04-06T03:28:50.252Z,47.3
2019-04-06T03:30:50.335Z,46.6
2019-04-06T03:32:49.483Z,44.1
2019-04-06T03:34:50.269Z,45.8
2019-04-06T03:36:49.571Z,45.8
2019-04-06T03:38:49.697Z,47.8
2019-04-06T03:40:49.861Z,43.6
2019-04-06T03:42:50.092Z,43.6
2019-04-06T03:44:50.477Z,45.9
2019-04-06T03:46:49.900Z,45.9
2019-04-06T03:48:50.211Z,46.3
2019-04-06T03:50:50.261Z,45.1
2019-04-06T03:52:49.561Z,45.1
2019-04-06T03:54:49.580Z,49.8
2019-04-06T03:56:49.848Z,45.0
2019-04-06T03:58:52.186Z,45.0
2019-04-06T04:00:50.256Z,43.3
2019-04-06T04:02:49.601Z,43.3
2019-04-06T04:04:50.043Z,45.6
2019-04-06T04:06:50.357Z,45.6
2019-04-06T04:08:50.378Z,43.5
2019-04-06T04:10:49.611Z,44.8
2019-04-06T04:12:49.759Z,44.8
2019-04-06T04:14:49.989Z,48.1
2019-04-06T04:16:50.372Z,48.1
2019-04-06T04:18:49.729Z,44.9
2019-04-06T04:20:49.959Z,44.1
2019-04-06T04:22:50.074Z,44.1
2019-04-06T04:24:50.191Z,44.1
2019-04-06T04:26:50.071Z,44.7
2019-04-06T04:28:50.195Z,40.8
2019-04-06T04:30:50.356Z,44.0
2019-04-06T04:32:49.710Z,42.8
2019-04-06T04:34:50.283Z,42.8
2019-04-06T04:36:50.072Z,44.0
2019-04-06T04:38:50.378Z,44.1
2019-04-06T04:40:49.753Z,44.1
2019-04-06T04:42:49.892Z,47.6
2019-04-06T04:44:49.920Z,47.6
2019-04-06T04:46:50.147Z,48.6
2019-04-06T04:48:50.473Z,47.8
2019-04-06T04:50:49.588Z,47.8
2019-04-06T04:52:50.073Z,51.0
2019-04-06T04:54:50.255Z,51.0
2019-04-06T04:56:49.539Z,55.4
2019-04-06T04:58:49.540Z,53.0
2019-04-06T05:00:50.093Z,53.0
2019-04-06T05:02:50.399Z,55.4
2019-04-06T05:04:49.845Z,55.4
2019-04-06T05:06:49.969Z,53.3
2019-04-06T05:08:50.159Z,56.2
2019-04-06T05:10:50.191Z,52.6
2019-04-06T05:12:50.264Z,52.6
2019-04-06T05:14:50.295Z,53.3
2019-04-06T05:16:49.978Z,50.8
2019-04-06T05:18:49.942Z,46.3
2019-04-06T05:20:50.233Z,46.3
2019-04-06T05:22:50.332Z,48.9
2019-04-06T05:24:50.412Z,47.9
2019-04-06T05:26:49.772Z,51.3
2019-04-06T05:28:49.871Z,56.2
2019-04-06T05:30:50.189Z,56.2
2019-04-06T05:32:50.262Z,55.3
2019-04-06T05:34:49.775Z,50.2
2019-04-06T05:36:49.678Z,50.7
2019-04-06T05:38:49.876Z,50.7
2019-04-06T05:40:49.930Z,50.5
2019-04-06T05:42:50.153Z,50.5
2019-04-06T05:44:50.377Z,49.3
2019-04-06T05:46:49.658Z,49.9
2019-04-06T05:48:49.751Z,49.9
2019-04-06T05:50:49.693Z,48.4
2019-04-06T05:52:49.650Z,48.4
2019-04-06T05:54:49.847Z,45.3
2019-04-06T05:56:50.029Z,43.7
2019-04-06T05:58:49.439Z,46.2
2019-04-06T06:00:49.862Z,44.3
2019-04-06T06:02:50.151Z,44.3
2019-04-06T06:04:49.543Z,40.1
2019-04-06T06:06:49.755Z,39.0
2019-04-06T06:08:49.990Z,38.3
2019-04-06T06:10:50.062Z,38.3
2019-04-06T06:12:50.265Z,37.2
2019-04-06T06:14:49.524Z,35.8
2019-04-06T06:16:49.654Z,36.7
2019-04-06T06:18:50.010Z,36.7
2019-04-06T06:20:50.083Z,38.3
2019-04-06T06:22:50.092Z,34.4
2019-04-06T06:24:50.123Z,37.3
2019-04-06T06:26:49.549Z,33.0
2019-04-06T06:28:49.570Z,33.0
2019-04-06T06:30:49.630Z,33.9
2019-04-06T06:32:49.697Z,34.6
2019-04-06T06:34:50.022Z,33.8
2019-04-06T06:36:50.145Z,35.7
2019-04-06T06:38:50.259Z,35.7
2019-04-06T06:40:50.399Z,35.6
2019-04-06T06:42:50.510Z,33.0
2019-04-06T06:44:49.675Z,34.9
2019-04-06T06:46:50.022Z,35.3
2019-04-06T06:48:50.093Z,35.3
2019-04-06T06:50:50.241Z,38.4
2019-04-06T06:52:50.249Z,38.4
2019-04-06T06:54:49.539Z,33.1
2019-04-06T06:56:49.754Z,33.1
2019-04-06T06:58:49.868Z,35.2
2019-04-06T07:00:50.197Z,33.6
2019-04-06T07:02:50.244Z,34.0
2019-04-06T07:04:49.616Z,34.0
2019-04-06T07:06:49.872Z,35.7
2019-04-06T07:08:50.179Z,35.7
2019-04-06T07:10:50.308Z,33.1
2019-04-06T07:12:49.497Z,32.4
2019-04-06T07:14:49.771Z,32.4
2019-04-06T07:16:49.953Z,29.9
2019-04-06T07:18:49.970Z,29.9
2019-04-06T07:20:50.309Z,32.8
2019-04-06T07:22:50.340Z,31.6
2019-04-06T07:24:49.760Z,31.6
2019-04-06T07:26:50.226Z,31.4
2019-04-06T07:28:50.199Z,28.2
2019-04-06T07:30:50.238Z,31.4
2019-04-06T07:32:50.395Z,30.2
2019-04-06T07:34:49.836Z,30.7
2019-04-06T07:36:50.001Z,30.7
2019-04-06T07:38:50.015Z,31.7
2019-04-06T07:40:50.282Z,29.3
2019-04-06T07:42:49.794Z,30.8
2019-04-06T07:44:49.984Z,29.5
2019-04-06T07:46:50.385Z,29.5
2019-04-06T07:48:50.400Z,30.7
2019-04-06T07:50:49.684Z,28.2
2019-04-06T07:52:49.884Z,29.0
2019-04-06T07:54:50.004Z,29.0
2019-04-06T07:56:50.348Z,29.2
2019-04-06T07:58:49.995Z,23.7
2019-04-06T08:00:49.741Z,25.0
2019-04-06T08:02:50.063Z,23.4
2019-04-06T08:04:49.801Z,23.4
2019-04-06T08:06:50.337Z,19.6
2019-04-06T08:08:49.663Z,20.3
2019-04-06T08:10:49.739Z,21.0
2019-04-06T08:12:50.102Z,20.4
2019-04-06T08:14:50.178Z,20.4
2019-04-06T08:16:50.292Z,20.7
2019-04-06T08:18:49.677Z,18.4
2019-04-06T08:20:49.995Z,17.9
2019-04-06T08:22:50.266Z,17.9
2019-04-06T08:24:50.415Z,16.6
2019-04-06T08:26:49.734Z,18.2
2019-04-06T08:28:59.350Z,18.2
2019-04-06T08:30:50.095Z,18.2
2019-04-06T08:32:50.185Z,16.7
2019-04-06T08:34:49.539Z,15.0
2019-04-06T08:36:49.660Z,14.6
2019-04-06T08:38:50.215Z,15.2
2019-04-06T08:40:50.276Z,15.2
2019-04-06T08:42:50.336Z,14.4
2019-04-06T08:44:50.397Z,14.4
2019-04-06T08:46:49.635Z,14.1
2019-04-06T08:48:49.702Z,14.4
2019-04-06T08:50:49.830Z,14.8
2019-04-06T08:52:50.161Z,13.9
2019-04-06T08:54:50.230Z,13.9
2019-04-06T08:56:50.366Z,13.6
2019-04-06T08:58:49.738Z,14.4
2019-04-06T09:00:50.275Z,13.8
2019-04-06T09:02:50.423Z,13.8
2019-04-06T09:04:49.931Z,13.6
2019-04-06T09:06:50.076Z,13.8
2019-04-06T09:08:50.417Z,13.0
2019-04-06T09:10:49.454Z,13.0
2019-04-06T09:12:49.601Z,13.1
2019-04-06T09:14:49.784Z,13.1
2019-04-06T09:16:50.089Z,14.9
2019-04-06T09:18:50.155Z,14.9
2019-04-06T09:20:50.416Z,13.7
2019-04-06T09:22:49.749Z,13.7
2019-04-06T09:24:50.279Z,13.4
2019-04-06T09:26:50.061Z,12.4
2019-04-06T09:28:50.388Z,15.5
2019-04-06T09:30:49.919Z,12.8
2019-04-06T09:32:50.402Z,12.8
2019-04-06T09:34:49.864Z,12.9
2019-04-06T09:36:50.508Z,12.9
2019-04-06T09:38:50.015Z,12.5
2019-04-06T09:40:50.275Z,12.3
2019-04-06T09:42:50.165Z,12.3
2019-04-06T09:44:50.398Z,13.0
2019-04-06T09:46:50.114Z,9.1
2019-04-06T09:48:50.410Z,12.8
2019-04-06T09:50:49.676Z,12.8
2019-04-06T09:52:50.133Z,12.8
2019-04-06T09:54:50.417Z,12.3
2019-04-06T09:56:50.200Z,13.2
2019-04-06T09:58:50.397Z,10.2
2019-04-06T10:00:50.027Z,10.2
2019-04-06T10:02:50.268Z,10.1
2019-04-06T10:04:49.836Z,11.5
2019-04-06T10:06:50.196Z,10.1
2019-04-06T10:08:49.777Z,10.4
2019-04-06T10:10:50.591Z,10.4
2019-04-06T10:12:50.104Z,9.8
2019-04-06T10:14:49.950Z,13.0
2019-04-06T10:16:49.604Z,13.0
2019-04-06T10:18:50.205Z,14.0
2019-04-06T10:20:49.666Z,14.0
2019-04-06T10:22:49.871Z,10.8
2019-04-06T10:24:50.124Z,9.9
2019-04-06T10:26:50.396Z,9.4
2019-04-06T10:28:50.393Z,9.4
2019-04-06T10:30:50.203Z,9.4
2019-04-06T10:32:50.224Z,9.9
2019-04-06T10:34:50.254Z,10.1
2019-04-06T10:36:49.962Z,10.1
2019-04-06T10:38:49.693Z,10.4
2019-04-06T10:40:49.941Z,9.7
2019-04-06T10:42:50.419Z,9.6
2019-04-06T10:44:50.033Z,12.7
2019-04-06T10:46:49.573Z,12.7
2019-04-06T10:48:49.783Z,10.2
2019-04-06T10:50:50.051Z,10.8
2019-04-06T10:52:49.564Z,10.2
2019-04-06T10:54:50.154Z,10.8
2019-04-06T10:56:49.583Z,10.8
2019-04-06T10:58:49.783Z,10.6
2019-04-06T11:00:50.211Z,10.2
2019-04-06T11:02:49.763Z,10.7
2019-04-06T11:04:50.350Z,10.7
2019-04-06T11:06:49.863Z,10.3
2019-04-06T11:08:50.088Z,10.3
2019-04-06T11:10:50.094Z,10.6
2019-04-06T11:12:50.156Z,10.1
2019-04-06T11:14:50.190Z,10.1
2019-04-06T11:16:49.641Z,9.9
2019-04-06T11:18:50.266Z,9.9
2019-04-06T11:20:49.804Z,10.8
2019-04-06T11:22:49.857Z,10.2
2019-04-06T11:24:50.543Z,10.2
2019-04-06T11:26:50.023Z,10.6
2019-04-06T11:28:50.307Z,10.2
2019-04-06T11:30:49.887Z,10.0
2019-04-06T11:32:49.572Z,10.9
2019-04-06T11:34:50.411Z,10.9
2019-04-06T11:36:50.064Z,10.6
2019-04-06T11:38:49.453Z,10.1
2019-04-06T11:40:49.604Z,10.4
2019-04-06T11:42:49.905Z,10.4
2019-04-06T11:44:50.640Z,10.4
2019-04-06T11:46:50.241Z,12.4
2019-04-06T11:48:49.560Z,10.2
2019-04-06T11:50:50.104Z,10.0
2019-04-06T11:52:50.047Z,10.0
2019-04-06T11:54:49.971Z,10.4
2019-04-06T11:56:50.187Z,11.0
2019-04-06T11:58:50.324Z,10.7
2019-04-06T12:00:49.497Z,10.6
2019-04-06T12:02:50.128Z,10.4
2019-04-06T12:04:50.108Z,10.4
2019-04-06T12:06:49.939Z,10.5
2019-04-06T12:08:50.397Z,10.5
2019-04-06T12:10:49.890Z,10.1
2019-04-06T12:12:49.508Z,10.1
2019-04-06T12:14:50.109Z,10.2
2019-04-06T12:16:49.854Z,9.6
2019-04-06T12:18:50.082Z,9.5
2019-04-06T12:20:49.616Z,9.1
2019-04-06T12:22:50.673Z,9.1
2019-04-06T12:24:49.527Z,10.2
2019-04-06T12:26:50.208Z,9.2
2019-04-06T12:28:49.823Z,9.5
2019-04-06T12:30:50.292Z,9.5
2019-04-06T12:32:49.672Z,9.5
2019-04-06T12:34:49.950Z,9.3
2019-04-06T12:36:50.351Z,9.3
2019-04-06T12:38:49.635Z,9.9
2019-04-06T12:40:50.108Z,9.9
2019-04-06T12:42:50.633Z,9.1
2019-04-06T12:44:49.931Z,11.2
2019-04-06T12:46:49.710Z,9.4
2019-04-06T12:48:52.342Z,10.2
2019-04-06T12:50:49.680Z,10.2
2019-04-06T12:52:50.374Z,8.9
2019-04-06T12:54:49.825Z,8.9
2019-04-06T12:56:49.817Z,9.2
2019-04-06T12:58:49.752Z,9.2
2019-04-06T13:00:52.839Z,8.7
2019-04-06T13:02:49.626Z,8.4
2019-04-06T13:04:50.241Z,10.1
2019-04-06T13:06:50.103Z,9.0
2019-04-06T13:08:50.338Z,14.4
2019-04-06T13:10:49.710Z,9.6
2019-04-06T13:12:50.033Z,9.9
2019-04-06T13:14:50.020Z,9.9
2019-04-06T13:16:49.524Z,8.9
2019-04-06T13:18:50.602Z,10.5
2019-04-06T13:20:49.969Z,10.5
2019-04-06T13:22:50.137Z,9.1
2019-04-06T13:24:50.164Z,17.2
2019-04-06T13:26:49.606Z,9.0
2019-04-06T13:28:50.225Z,9.6
2019-04-06T13:31:00.590Z,9.6
2019-04-06T13:32:49.654Z,8.8
2019-04-06T13:34:50.218Z,8.6
2019-04-06T13:36:49.844Z,9.7
2019-04-06T13:38:50.147Z,9.7
2019-04-06T13:40:50.410Z,9.9
2019-04-06T13:42:49.545Z,9.3
2019-04-06T13:44:49.796Z,8.9
2019-04-06T13:46:50.427Z,9.2
2019-04-06T13:48:50.033Z,9.2
2019-04-06T13:50:50.467Z,8.8
2019-04-06T13:52:49.764Z,8.4
2019-04-06T13:54:50.712Z,8.5
2019-04-06T13:56:50.079Z,8.0
2019-04-06T13:58:50.697Z,8.0
2019-04-06T14:00:49.637Z,80.3
2019-04-06T14:02:50.330Z,10.7
2019-04-06T14:04:50.160Z,8.1
2019-04-06T14:06:49.552Z,8.4
2019-04-06T14:08:49.859Z,29.3
2019-04-06T14:10:50.129Z,29.3
2019-04-06T14:12:50.426Z,8.3
2019-04-06T14:14:49.999Z,8.2
2019-04-06T14:16:49.541Z,9.2
2019-04-06T14:18:49.822Z,9.6
2019-04-06T14:20:50.074Z,9.6
2019-04-06T14:22:50.675Z,10.5
2019-04-06T14:24:50.405Z,8.1
2019-04-06T14:26:49.570Z,8.1
2019-04-06T14:28:50.193Z,8.1
2019-04-06T14:30:50.433Z,8.1
2019-04-06T14:32:49.694Z,10.2
2019-04-06T14:34:50.325Z,8.4
2019-04-06T14:36:49.790Z,8.2
2019-04-06T14:38:50.290Z,8.2
2019-04-06T14:40:50.067Z,7.9
2019-04-06T14:42:49.457Z,7.9
2019-04-06T14:44:50.389Z,8.2
2019-04-06T14:46:50.366Z,8.1
2019-04-06T14:48:50.001Z,8.1
2019-04-06T14:50:50.275Z,8.2
2019-04-06T14:52:49.713Z,9.5
2019-04-06T14:54:49.986Z,9.5
2019-04-06T14:56:49.544Z,13.5
2019-04-06T14:58:49.596Z,8.2
2019-04-06T15:00:50.779Z,8.2
2019-04-06T15:02:49.578Z,9.2
2019-04-06T15:04:50.369Z,9.2
2019-04-06T15:06:50.529Z,8.2
2019-04-06T15:08:50.211Z,8.4
2019-04-06T15:10:49.901Z,8.2
2019-04-06T15:12:50.219Z,8.5
2019-04-06T15:14:50.521Z,8.2
2019-04-06T15:16:50.349Z,8.2
2019-04-06T15:18:50.298Z,7.6
2019-04-06T15:20:49.975Z,7.7
2019-04-06T15:22:50.001Z,8.5
2019-04-06T15:24:50.061Z,8.5
2019-04-06T15:26:49.949Z,8.2
2019-04-06T15:28:50.098Z,8.2
2019-04-06T15:30:50.465Z,8.2
2019-04-06T15:32:50.229Z,8.2
2019-04-06T15:34:50.876Z,8.2
2019-04-06T15:36:49.662Z,8.2
2019-04-06T15:38:49.999Z,8.2
2019-04-06T15:40:49.701Z,10.0
2019-04-06T15:42:50.679Z,10.0
2019-04-06T15:44:50.386Z,8.8
2019-04-06T15:46:50.075Z,8.8
2019-04-06T15:48:49.820Z,10.3
2019-04-06T15:50:50.110Z,8.5
2019-04-06T15:52:50.435Z,8.9
2019-04-06T15:54:50.167Z,9.1
2019-04-06T15:56:49.936Z,9.1
2019-04-06T15:58:49.573Z,8.5
2019-04-06T16:00:50.598Z,8.5
2019-04-06T16:02:49.898Z,8.6
2019-04-06T16:04:49.607Z,8.6
2019-04-06T16:06:50.404Z,8.5
2019-04-06T16:08:49.818Z,8.7
2019-04-06T16:10:50.312Z,8.7
2019-04-06T16:12:50.656Z,8.7
2019-04-06T16:14:49.761Z,8.8
2019-04-06T16:16:49.980Z,8.8
2019-04-06T16:18:50.086Z,8.9
2019-04-06T16:20:49.743Z,9.3
2019-04-06T16:22:49.857Z,9.3
2019-04-06T16:24:50.184Z,9.1
2019-04-06T16:26:49.593Z,9.1
2019-04-06T16:28:49.732Z,11.0
2019-04-06T16:30:51.086Z,9.3
2019-04-06T16:32:50.699Z,9.3
2019-04-06T16:34:50.293Z,8.8
2019-04-06T16:36:49.896Z,8.8
2019-04-06T16:38:50.246Z,9.2
2019-04-06T16:40:50.190Z,9.2
2019-04-06T16:42:50.432Z,9.7
2019-04-06T16:44:50.527Z,9.4
2019-04-06T16:46:49.869Z,9.6
2019-04-06T16:48:50.396Z,9.6
2019-04-06T16:50:50.007Z,9.6
2019-04-06T16:52:49.882Z,9.3
2019-04-06T16:54:49.886Z,10.1
2019-04-06T16:56:50.115Z,10.4
2019-04-06T16:58:49.648Z,10.1
2019-04-06T17:00:50.003Z,10.1
2019-04-06T17:02:50.151Z,10.6
2019-04-06T17:04:50.104Z,9.8
2019-04-06T17:06:49.953Z,9.9
2019-04-06T17:08:50.223Z,9.6
2019-04-06T17:10:50.711Z,9.6
2019-04-06T17:12:49.766Z,10.3
2019-04-06T17:14:49.875Z,10.3
2019-04-06T17:16:50.078Z,10.1
2019-04-06T17:18:50.173Z,10.0
2019-04-06T17:20:50.217Z,10.0
2019-04-06T17:22:50.497Z,10.0
2019-04-06T17:24:49.590Z,10.1
2019-04-06T17:26:50.354Z,10.1
2019-04-06T17:28:50.402Z,10.6
2019-04-06T17:30:49.583Z,10.3
2019-04-06T17:32:50.314Z,10.2
2019-04-06T17:34:54.124Z,9.6
2019-04-06T17:36:50.025Z,9.9
2019-04-06T17:38:50.081Z,9.8
2019-04-06T17:40:50.156Z,9.8
2019-04-06T17:42:50.408Z,10.2
2019-04-06T17:44:49.691Z,10.3
2019-04-06T17:46:50.454Z,10.3
2019-04-06T17:48:49.957Z,10.3
2019-04-06T17:50:50.265Z,9.9
2019-04-06T17:52:50.230Z,9.9
2019-04-06T17:54:50.369Z,9.5
2019-04-06T17:56:49.914Z,10.4
2019-04-06T17:58:50.694Z,10.4
2019-04-06T18:00:50.372Z,11.1
2019-04-06T18:02:50.880Z,11.1
2019-04-06T18:04:50.058Z,9.9
2019-04-06T18:06:50.609Z,11.0
2019-04-06T18:08:49.975Z,11.0
2019-04-06T18:10:50.228Z,11.0
2019-04-06T18:12:50.250Z,10.0
2019-04-06T18:14:49.477Z,10.4
2019-04-06T18:16:49.786Z,10.8
2019-04-06T18:18:49.868Z,10.3
2019-04-06T18:20:50.296Z,10.3
2019-04-06T18:22:49.520Z,12.2
2019-04-06T18:24:50.085Z,9.7
2019-04-06T18:26:49.734Z,9.7
2019-04-06T18:28:49.789Z,10.5
2019-04-06T18:30:50.256Z,10.9
2019-04-06T18:32:58.716Z,10.5
2019-04-06T18:34:50.182Z,10.5
2019-04-06T18:36:49.470Z,12.3
2019-04-06T18:38:49.735Z,12.3
2019-04-06T18:40:50.347Z,10.6
2019-04-06T18:42:50.741Z,10.2
2019-04-06T18:44:49.883Z,10.9
2019-04-06T18:46:50.059Z,10.6
2019-04-06T18:48:50.280Z,10.6
2019-04-06T18:50:50.757Z,10.8
2019-04-06T18:52:49.939Z,10.1
2019-04-06T18:54:50.049Z,10.4
2019-04-06T18:56:50.094Z,10.4
2019-04-06T18:58:50.372Z,13.2
2019-04-06T19:00:49.752Z,10.4
2019-04-06T19:02:49.596Z,10.4
2019-04-06T19:04:50.156Z,11.8
2019-04-06T19:06:50.419Z,11.3
2019-04-06T19:08:49.608Z,11.3
2019-04-06T19:10:50.147Z,11.5
2019-04-06T19:12:49.655Z,11.7
2019-04-06T19:14:49.718Z,11.7
2019-04-06T19:16:50.249Z,11.9
2019-04-06T19:18:50.371Z,11.9
2019-04-06T19:20:50.136Z,12.1
2019-04-06T19:22:50.177Z,11.5
2019-04-06T19:24:50.254Z,11.8
2019-04-06T19:26:49.941Z,11.8
2019-04-06T19:28:50.428Z,12.0
2019-04-06T19:30:49.921Z,13.6
2019-04-06T19:32:50.008Z,11.9
2019-04-06T19:34:50.631Z,11.5
2019-04-06T19:36:49.914Z,11.5
2019-04-06T19:38:49.963Z,11.2
2019-04-06T19:40:50.386Z,11.5
2019-04-06T19:42:49.878Z,11.3
2019-04-06T19:44:50.029Z,11.3
2019-04-06T19:46:50.440Z,11.7
2019-04-06T19:48:50.513Z,12.2
2019-04-06T19:50:49.863Z,12.6
2019-04-06T19:52:49.954Z,12.6
2019-04-06T19:54:49.590Z,12.2
2019-04-06T19:56:49.902Z,12.5
2019-04-06T19:58:50.069Z,13.0
2019-04-06T20:00:50.599Z,13.2
2019-04-06T20:02:50.201Z,13.2
2019-04-06T20:04:49.670Z,12.8
2019-04-06T20:06:50.521Z,13.2
2019-04-06T20:08:49.786Z,13.1
2019-04-06T20:10:50.771Z,12.3
2019-04-06T20:12:50.379Z,12.3
2019-04-06T20:14:49.611Z,13.0
2019-04-06T20:16:50.055Z,13.0
2019-04-06T20:18:50.404Z,13.1
2019-04-06T20:20:49.738Z,13.9
2019-04-06T20:22:49.478Z,13.3
2019-04-06T20:24:50.211Z,13.3
2019-04-06T20:26:50.179Z,16.4
2019-04-06T20:28:50.093Z,15.2
2019-04-06T20:30:50.350Z,15.4
2019-04-06T20:32:50.138Z,15.4
2019-04-06T20:34:49.733Z,15.7
2019-04-06T20:36:49.725Z,15.7
2019-04-06T20:38:49.990Z,15.8
2019-04-06T20:40:50.285Z,16.7
2019-04-06T20:42:49.928Z,16.7
2019-04-06T20:44:50.247Z,16.4
2019-04-06T20:46:49.515Z,16.4
2019-04-06T20:48:50.152Z,16.3
2019-04-06T20:50:50.749Z,16.3
2019-04-06T20:52:50.385Z,14.2
2019-04-06T20:54:50.046Z,14.2
2019-04-06T20:56:55.111Z,14.1
2019-04-06T20:58:50.252Z,14.1
2019-04-06T21:00:50.457Z,13.3
2019-04-06T21:02:50.226Z,13.3
2019-04-06T21:04:50.642Z,14.0
2019-04-06T21:06:50.380Z,12.2
2019-04-06T21:08:50.137Z,12.7
2019-04-06T21:10:49.868Z,12.4
2019-04-06T21:12:50.054Z,12.4
2019-04-06T21:14:49.766Z,11.6
2019-04-06T21:16:50.347Z,11.6
2019-04-06T21:18:49.507Z,10.1
2019-04-06T21:20:49.808Z,9.6
2019-04-06T21:22:49.806Z,9.6
2019-04-06T21:24:49.604Z,8.9
2019-04-06T21:26:49.908Z,8.8
2019-04-06T21:28:50.260Z,8.5
2019-04-06T21:30:49.484Z,8.5
2019-04-06T21:32:49.722Z,8.3
2019-04-06T21:34:50.431Z,8.2
2019-04-06T21:36:49.810Z,8.2
2019-04-06T21:38:50.403Z,7.6
2019-04-06T21:40:50.038Z,7.6
2019-04-06T21:42:49.492Z,8.4
2019-04-06T21:44:50.264Z,8.0
2019-04-06T21:46:49.619Z,8.1
2019-04-06T21:48:50.566Z,7.9
2019-04-06T21:50:50.104Z,7.9
2019-04-06T21:52:50.761Z,8.0
2019-04-06T21:54:50.375Z,8.2
2019-04-06T21:56:50.177Z,7.5
2019-04-06T21:58:50.439Z,7.5
2019-04-06T22:00:49.990Z,7.8
2019-04-06T22:02:50.374Z,7.7
2019-04-06T22:04:49.703Z,7.7
2019-04-06T22:06:50.634Z,7.8
2019-04-06T22:08:50.118Z,7.8
2019-04-06T22:10:50.408Z,7.3
2019-04-06T22:12:49.693Z,7.7
2019-04-06T22:14:49.850Z,7.6
2019-04-06T22:16:50.600Z,8.3
2019-04-06T22:18:49.857Z,7.8
2019-04-06T22:20:50.193Z,7.8
2019-04-06T22:22:50.253Z,8.2
2019-04-06T22:24:50.114Z,8.2
2019-04-06T22:26:49.666Z,8.4
2019-04-06T22:28:50.124Z,8.4
2019-04-06T22:30:49.905Z,8.4
2019-04-06T22:32:49.782Z,8.3
2019-04-06T22:34:50.233Z,8.3
2019-04-06T22:36:50.414Z,8.0
2019-04-06T22:38:49.644Z,7.9
2019-04-06T22:40:50.325Z,7.9
2019-04-06T22:42:49.568Z,8.2
2019-04-06T22:44:50.320Z,7.9
2019-04-06T22:46:51.366Z,7.9
2019-04-06T22:48:49.668Z,7.1
2019-04-06T22:50:49.601Z,7.1
2019-04-06T22:52:50.233Z,6.8
2019-04-06T22:54:50.178Z,7.1
2019-04-06T22:56:49.737Z,7.1
2019-04-06T22:58:50.352Z,6.9
2019-04-06T23:00:50.348Z,6.9
2019-04-06T23:02:49.634Z,7.3
2019-04-06T23:04:51.276Z,6.7
2019-04-06T23:06:49.884Z,7.4
2019-04-06T23:08:50.255Z,7.4
2019-04-06T23:10:50.448Z,6.3
2019-04-06T23:12:49.687Z,6.3
2019-04-06T23:14:49.896Z,6.6
2019-04-06T23:16:50.282Z,6.9
2019-04-06T23:18:50.450Z,6.9
2019-04-06T23:20:49.714Z,6.9
2019-04-06T23:22:50.066Z,6.9
2019-04-06T23:24:50.197Z,6.9
2019-04-06T23:26:49.862Z,7.1
2019-04-06T23:28:50.238Z,6.9
2019-04-06T23:30:50.417Z,6.7
2019-04-06T23:32:49.995Z,6.8
2019-04-06T23:34:58.632Z,6.8
2019-04-06T23:36:50.005Z,6.7
2019-04-06T23:38:49.909Z,6.5
2019-04-06T23:40:50.031Z,7.2
2019-04-06T23:42:50.204Z,7.2
2019-04-06T23:44:50.302Z,6.3
2019-04-06T23:46:49.792Z,6.9
2019-04-06T23:48:49.916Z,9.0
2019-04-06T23:50:49.941Z,6.9
2019-04-06T23:52:50.520Z,6.7
2019-04-06T23:54:49.669Z,6.7
2019-04-06T23:56:50.066Z,7.3
2019-04-06T23:58:50.408Z,7.3
